Time;durP1;ratioP1;P1;durP2;ratioP2;P2;SDS_P1;SDS_P2;PMS_P1;PMS_P2;Temp;Humidity;BMP_temperature;BMP_pressure;BME280_temperature;BME280_humidity;BME280_pressure;Samples;Min_cycle;Max_cycle;Signal;HPM_P1;HPM_P2
2023/12/18 00:02:08;;;;;;;34.45;20.33;;;;;;;5.09;100.00;161897.56;5052004;28;20025;-63
2023/12/18 00:04:33;;;;;;;36.65;24.80;;;;;;;5.10;100.00;161898.94;5050603;28;20590;-63
2023/12/18 00:06:58;;;;;;;39.33;26.38;;;;;;;5.05;100.00;161888.16;5052190;28;20025;-63
2023/12/18 00:09:24;;;;;;;51.97;24.60;;;;;;;5.11;100.00;161901.59;5050403;28;20041;-62
2023/12/18 00:11:49;;;;;;;29.25;21.52;;;;;;;5.07;100.00;161892.16;5052016;28;20013;-62
2023/12/18 00:14:15;;;;;;;43.92;24.42;;;;;;;5.14;100.00;161911.00;5050418;28;20037;-62
2023/12/18 00:16:40;;;;;;;40.78;21.35;;;;;;;5.13;100.00;161906.97;5051621;28;20468;-62
2023/12/18 00:19:06;;;;;;;37.45;22.45;;;;;;;5.05;100.00;161888.16;5050720;28;20476;-62
2023/12/18 00:21:32;;;;;;;37.35;23.88;;;;;;;5.14;100.00;161909.69;5060640;28;20055;-62
2023/12/18 00:23:57;;;;;;;39.97;23.90;;;;;;;5.16;100.00;161915.06;5070462;28;20024;-62
2023/12/18 00:26:23;;;;;;;41.38;27.38;;;;;;;5.10;100.00;161900.25;5071768;28;20090;-62
2023/12/18 00:28:49;;;;;;;37.10;24.73;;;;;;;5.13;100.00;161906.97;5069992;28;20020;-62
2023/12/18 00:31:14;;;;;;;37.58;25.25;;;;;;;5.16;100.00;161915.06;5071926;28;20492;-63
2023/12/18 00:33:39;;;;;;;35.53;22.25;;;;;;;5.20;100.00;161925.81;5071341;28;20032;-63
2023/12/18 00:36:05;;;;;;;42.17;23.67;;;;;;;5.20;100.00;161927.19;5061299;28;20114;-62
2023/12/18 00:38:31;;;;;;;46.83;27.02;;;;;;;5.21;100.00;161929.81;5051429;28;20039;-63
2023/12/18 00:40:56;;;;;;;37.63;23.45;;;;;;;5.25;100.00;161939.25;5049709;28;20040;-63
2023/12/18 00:43:21;;;;;;;33.33;22.08;;;;;;;5.25;100.00;161939.25;5050762;28;20029;-63
2023/12/18 00:45:47;;;;;;;46.67;24.10;;;;;;;5.26;100.00;161941.94;5049748;28;20037;-63
2023/12/18 00:48:12;;;;;;;41.40;24.42;;;;;;;5.25;100.00;161939.25;5051496;28;20588;-62
2023/12/18 00:50:38;;;;;;;36.03;24.27;;;;;;;5.22;100.00;161931.19;5066619;28;20051;-62
2023/12/18 00:53:03;;;;;;;38.42;24.88;;;;;;;5.18;100.00;161920.41;5069720;28;20051;-62
2023/12/18 00:55:28;;;;;;;38.47;24.55;;;;;;;5.17;100.00;161917.78;5069591;28;20036;-62
2023/12/18 00:57:55;;;;;;;40.92;23.75;;;;;;;5.19;100.00;161923.13;5070405;28;20387;-63
2023/12/18 01:00:20;;;;;;;35.05;22.52;;;;;;;5.25;100.00;161939.25;5068964;28;20067;-62
2023/12/18 01:02:46;;;;;;;44.58;23.77;;;;;;;5.20;100.00;161925.81;5070910;28;20025;-62
2023/12/18 01:05:13;;;;;;;41.22;24.92;;;;;;;5.22;100.00;161931.19;5068246;28;20485;-63
2023/12/18 01:07:40;;;;;;;36.85;22.20;;;;;;;5.21;100.00;161929.81;5050847;28;20055;-62
2023/12/18 01:10:06;;;;;;;30.30;23.17;;;;;;;5.10;100.00;161898.94;5049381;28;20033;-63
2023/12/18 01:12:31;;;;;;;40.92;23.77;;;;;;;5.27;100.00;161944.66;5050494;28;20491;-63
2023/12/18 01:14:56;;;;;;;33.03;21.48;;;;;;;5.27;100.00;161944.66;5049269;28;20048;-63
2023/12/18 01:17:22;;;;;;;28.80;18.98;;;;;;;5.24;100.00;161936.59;5050549;28;20114;-64
2023/12/18 01:19:47;;;;;;;32.35;19.52;;;;;;;5.20;100.00;161925.81;5057988;28;20045;-64
2023/12/18 01:22:12;;;;;;;34.80;22.67;;;;;;;5.21;100.00;161928.50;5070578;28;20032;-64
2023/12/18 01:24:38;;;;;;;38.47;22.35;;;;;;;5.18;100.00;161921.78;5068953;28;20036;-64
2023/12/18 01:27:03;;;;;;;40.53;23.25;;;;;;;5.17;100.00;161917.78;5070179;28;20028;-64
2023/12/18 01:29:29;;;;;;;34.90;19.52;;;;;;;5.19;100.00;161924.50;5068883;28;20124;-64
2023/12/18 01:31:54;;;;;;;27.95;18.90;;;;;;;5.14;100.00;161909.69;5060382;28;20025;-64
2023/12/18 01:34:19;;;;;;;33.75;20.40;;;;;;;5.14;100.00;161909.69;5048579;28;20045;-64
2023/12/18 01:36:45;;;;;;;39.88;20.83;;;;;;;5.18;100.00;161920.41;5050623;28;20041;-63
2023/12/18 01:39:10;;;;;;;24.95;17.77;;;;;;;5.16;100.00;161915.06;5049001;28;20033;-63
2023/12/18 01:41:36;;;;;;;33.22;20.35;;;;;;;5.06;100.00;161890.84;5049785;28;20460;-63
2023/12/18 01:44:02;;;;;;;38.28;19.83;;;;;;;5.12;100.00;161904.28;5049007;28;20095;-63
2023/12/18 01:46:28;;;;;;;33.83;21.52;;;;;;;5.16;100.00;161915.06;5050277;28;20029;-63
2023/12/18 01:48:54;;;;;;;30.02;20.67;;;;;;;5.17;100.00;161917.78;5067802;28;20495;-63
2023/12/18 01:51:20;;;;;;;33.00;20.63;;;;;;;5.17;100.00;161917.78;5070336;28;20040;-63
2023/12/18 01:53:48;;;;;;;37.33;22.67;;;;;;;5.17;100.00;161917.78;5068832;28;20039;-61
2023/12/18 01:56:15;;;;;;;29.70;19.75;;;;;;;5.18;100.00;161921.78;5069965;28;20017;-63
2023/12/18 01:58:43;;;;;;;33.55;20.27;;;;;;;5.18;100.00;161920.41;5070262;28;20089;-63
2023/12/18 02:01:09;;;;;;;37.47;20.35;;;;;;;5.12;100.00;161904.28;5068756;28;20110;-63
2023/12/18 02:03:35;;;;;;;36.35;22.25;;;;;;;5.10;100.00;161898.94;5050477;28;20029;-63
2023/12/18 02:06:03;;;;;;;40.15;24.77;;;;;;;5.12;100.00;161904.28;5048764;28;20052;-63
2023/12/18 02:08:32;;;;;;;31.30;21.60;;;;;;;5.06;100.00;161890.84;5049905;28;20027;-62
2023/12/18 02:10:58;;;;;;;37.85;20.27;;;;;;;4.95;100.00;161861.28;5048131;28;20111;-63
2023/12/18 02:13:23;;;;;;;39.55;20.70;;;;;;;5.02;100.00;161880.13;5053494;28;20032;-63
2023/12/18 02:15:49;;;;;;;45.97;25.00;;;;;;;5.03;100.00;161882.75;5052825;28;20495;-62
2023/12/18 02:18:14;;;;;;;38.53;21.08;;;;;;;5.02;100.00;161880.13;5053924;28;20025;-61
2023/12/18 02:20:43;;;;;;;35.80;22.48;;;;;;;4.91;100.00;161851.81;5052455;28;20041;-61
2023/12/18 02:23:09;;;;;;;31.10;20.60;;;;;;;5.02;100.00;161880.13;5053995;28;20064;-61
2023/12/18 02:25:35;;;;;;;31.63;21.58;;;;;;;5.01;100.00;161877.41;5061433;28;20070;-63
2023/12/18 02:28:03;;;;;;;45.25;21.88;;;;;;;4.97;100.00;161866.63;5072500;28;20066;-63
2023/12/18 02:30:28;;;;;;;43.63;24.17;;;;;;;4.93;100.00;161855.91;5032261;28;20048;-62
2023/12/18 02:32:53;;;;;;;34.35;20.88;;;;;;;4.91;100.00;161850.50;5059872;28;20033;-63
2023/12/18 02:35:19;;;;;;;34.47;21.40;;;;;;;4.84;100.00;161831.69;5072043;28;20040;-62
2023/12/18 02:37:44;;;;;;;35.33;20.90;;;;;;;4.96;100.00;161863.94;5053349;28;20412;-62
2023/12/18 02:40:10;;;;;;;37.08;23.00;;;;;;;4.96;100.00;161862.63;5052343;28;20416;-62
2023/12/18 02:42:35;;;;;;;41.55;23.48;;;;;;;4.99;100.00;161872.03;5053073;28;20048;-62
2023/12/18 02:45:02;;;;;;;36.55;22.27;;;;;;;5.00;100.00;161873.34;5052301;28;20045;-62
2023/12/18 02:47:27;;;;;;;32.08;21.17;;;;;;;5.02;100.00;161880.13;5064372;28;20503;-62
2023/12/18 02:49:53;;;;;;;37.35;23.40;;;;;;;4.99;100.00;161872.03;5070357;28;20044;-62
2023/12/18 02:52:18;;;;;;;36.63;20.17;;;;;;;4.94;100.00;161858.59;5073308;28;20598;-62
2023/12/18 02:54:44;;;;;;;28.63;20.85;;;;;;;5.01;100.00;161877.41;5072198;28;20408;-62
2023/12/18 02:57:09;;;;;;;32.88;21.88;;;;;;;4.97;100.00;161866.63;5062331;28;20021;-62
2023/12/18 02:59:35;;;;;;;36.90;22.70;;;;;;;5.01;100.00;161877.41;5057074;28;20114;-62
2023/12/18 03:02:00;;;;;;;31.85;21.50;;;;;;;5.01;100.00;161877.41;5073158;28;20479;-62
2023/12/18 03:04:25;;;;;;;44.55;22.50;;;;;;;4.98;100.00;161869.31;5056070;28;20048;-62
2023/12/18 03:06:51;;;;;;;38.40;24.25;;;;;;;4.99;100.00;161872.03;5053116;28;20029;-63
2023/12/18 03:09:16;;;;;;;35.25;22.25;;;;;;;5.02;100.00;161880.13;5051351;28;20427;-63
2023/12/18 03:11:43;;;;;;;41.85;23.73;;;;;;;5.03;100.00;161881.44;5052762;28;20098;-62
2023/12/18 03:14:10;;;;;;;28.80;21.58;;;;;;;5.02;100.00;161880.13;5051849;28;20456;-63
2023/12/18 03:16:36;;;;;;;44.72;23.80;;;;;;;5.03;100.00;161882.75;5053166;28;20025;-62
2023/12/18 03:19:01;;;;;;;32.85;20.48;;;;;;;5.02;100.00;161880.13;5051331;28;20025;-62
2023/12/18 03:21:26;;;;;;;34.15;22.13;;;;;;;4.99;100.00;161872.03;5052704;28;20495;-62
2023/12/18 03:23:52;;;;;;;33.58;24.17;;;;;;;5.03;100.00;161881.44;5050603;28;20025;-62
2023/12/18 03:26:17;;;;;;;48.75;24.45;;;;;;;5.04;100.00;161884.13;5055265;28;20028;-62
2023/12/18 03:28:43;;;;;;;41.70;23.63;;;;;;;5.01;100.00;161877.41;5071415;28;20032;-63
2023/12/18 03:31:09;;;;;;;37.28;24.35;;;;;;;4.97;100.00;161866.63;5052678;28;20033;-62
2023/12/18 03:33:35;;;;;;;34.25;22.00;;;;;;;5.00;100.00;161874.72;5052169;28;20422;-63
2023/12/18 03:36:01;;;;;;;33.92;24.30;;;;;;;4.97;100.00;161866.63;5051197;28;20094;-64
2023/12/18 03:38:26;;;;;;;34.60;26.23;;;;;;;4.98;100.00;161869.31;5052432;28;20040;-59
2023/12/18 03:40:51;;;;;;;35.67;26.17;;;;;;;5.00;100.00;161874.72;5050998;28;20103;-63
2023/12/18 03:43:17;;;;;;;52.10;23.63;;;;;;;5.00;100.00;161874.72;5052306;28;20384;-63
2023/12/18 03:45:42;;;;;;;37.22;24.20;;;;;;;4.98;100.00;161869.31;5050967;28;20053;-63
2023/12/18 03:48:07;;;;;;;38.60;24.20;;;;;;;4.99;100.00;161872.03;5052060;28;20029;-63
2023/12/18 03:50:33;;;;;;;38.35;24.83;;;;;;;4.98;100.00;161869.31;5050943;28;20045;-63
2023/12/18 03:52:58;;;;;;;32.40;22.50;;;;;;;5.01;100.00;161876.03;5052575;28;20025;-63
2023/12/18 03:55:24;;;;;;;44.42;26.75;;;;;;;4.99;100.00;161870.69;5062093;28;20052;-64
2023/12/18 03:57:49;;;;;;;38.58;23.80;;;;;;;5.00;100.00;161874.72;5072475;28;20020;-63
2023/12/18 04:00:15;;;;;;;39.30;22.35;;;;;;;5.01;100.00;161877.41;5058003;28;20443;-63
2023/12/18 04:02:40;;;;;;;41.47;22.67;;;;;;;4.99;100.00;161872.03;5051492;28;20029;-63
2023/12/18 04:05:06;;;;;;;36.70;27.73;;;;;;;5.00;100.00;161874.72;5050550;28;20090;-64
2023/12/18 04:07:32;;;;;;;39.10;24.88;;;;;;;4.97;100.00;161866.63;5052040;28;20063;-63
2023/12/18 04:09:57;;;;;;;36.50;24.40;;;;;;;5.01;100.00;161876.03;5050319;28;20032;-63
2023/12/18 04:12:22;;;;;;;52.25;29.42;;;;;;;5.00;100.00;161874.72;5051749;28;20029;-61
2023/12/18 04:14:48;;;;;;;40.35;26.02;;;;;;;4.99;100.00;161872.03;5050653;28;20045;-61
2023/12/18 04:17:13;;;;;;;39.78;26.38;;;;;;;5.04;100.00;161885.47;5051602;28;20021;-61
2023/12/18 04:19:38;;;;;;;35.33;24.73;;;;;;;5.04;100.00;161885.47;5050266;28;20037;-61
2023/12/18 04:22:04;;;;;;;34.58;25.40;;;;;;;5.01;100.00;161876.03;5051819;28;20017;-62
2023/12/18 04:24:29;;;;;;;40.90;26.30;;;;;;;5.04;100.00;161884.13;5053603;28;20373;-62
2023/12/18 04:26:56;;;;;;;37.20;23.65;;;;;;;5.03;100.00;161882.75;5057461;28;20029;-61
2023/12/18 04:29:21;;;;;;;42.05;25.02;;;;;;;5.02;100.00;161880.13;5052854;28;20040;-61
2023/12/18 04:31:47;;;;;;;40.95;26.27;;;;;;;5.00;100.00;161873.34;5071238;28;20032;-61
2023/12/18 04:34:12;;;;;;;41.30;26.98;;;;;;;5.02;100.00;161878.75;5070065;28;20117;-62
2023/12/18 04:36:39;;;;;;;48.33;25.23;;;;;;;5.03;100.00;161882.75;5071181;28;20487;-62
2023/12/18 04:39:04;;;;;;;41.65;26.85;;;;;;;5.03;100.00;161882.75;5069853;28;20024;-61
2023/12/18 04:41:30;;;;;;;34.70;25.50;;;;;;;5.00;100.00;161873.34;5071270;28;20502;-61
2023/12/18 04:43:55;;;;;;;39.45;26.30;;;;;;;4.98;100.00;161868.00;5068547;28;20028;-61
2023/12/18 04:46:20;;;;;;;42.10;29.42;;;;;;;5.01;100.00;161876.03;5050484;28;20099;-62
2023/12/18 04:48:46;;;;;;;39.13;25.83;;;;;;;4.99;100.00;161872.03;5051162;28;20029;-62
2023/12/18 04:51:11;;;;;;;39.78;28.50;;;;;;;4.99;100.00;161872.03;5049877;28;20454;-62
2023/12/18 04:53:37;;;;;;;39.78;26.38;;;;;;;4.99;100.00;161872.03;5051244;28;20036;-61
2023/12/18 04:56:03;;;;;;;44.47;27.70;;;;;;;4.97;100.00;161865.31;5049592;28;20041;-62
2023/12/18 04:58:30;;;;;;;43.78;29.67;;;;;;;4.92;100.00;161854.53;5051318;28;20078;-62
2023/12/18 05:00:56;;;;;;;38.58;29.42;;;;;;;4.93;100.00;161855.91;5050486;28;20047;-71
2023/12/18 05:03:21;;;;;;;42.58;30.30;;;;;;;4.84;100.00;161831.69;5050568;28;20063;-62
2023/12/18 05:05:47;;;;;;;40.88;27.98;;;;;;;4.93;100.00;161857.22;5049451;28;20041;-63
2023/12/18 05:08:12;;;;;;;40.40;28.20;;;;;;;4.91;100.00;161850.50;5050681;28;20036;-62
2023/12/18 05:10:38;;;;;;;51.22;31.35;;;;;;;4.95;100.00;161861.28;5048135;28;20040;-62
2023/12/18 05:13:03;;;;;;;43.42;28.80;;;;;;;4.97;100.00;161866.63;5051987;28;20037;-61
2023/12/18 05:15:29;;;;;;;42.63;31.13;;;;;;;4.97;100.00;161865.31;5048909;28;20472;-62
2023/12/18 05:17:54;;;;;;;52.53;31.33;;;;;;;4.95;100.00;161861.28;5050749;28;20025;-62
2023/12/18 05:20:19;;;;;;;44.67;27.05;;;;;;;4.99;100.00;161870.69;5049004;28;20602;-62
2023/12/18 05:22:45;;;;;;;46.17;29.33;;;;;;;4.92;100.00;161853.19;5050650;28;20040;-61
2023/12/18 05:25:10;;;;;;;52.35;28.90;;;;;;;4.91;100.00;161851.81;5048792;28;20041;-61
2023/12/18 05:27:36;;;;;;;40.10;28.10;;;;;;;4.98;100.00;161869.31;5050501;28;20035;-62
2023/12/18 05:30:01;;;;;;;54.85;28.80;;;;;;;4.93;100.00;161857.22;5048334;28;20074;-62
2023/12/18 05:32:29;;;;;;;69.70;34.78;;;;;;;4.93;100.00;161855.91;5052689;28;20074;-62
2023/12/18 05:34:54;;;;;;;42.38;28.58;;;;;;;4.98;100.00;161869.31;5068829;28;20414;-62
2023/12/18 05:37:21;;;;;;;41.95;27.92;;;;;;;4.97;100.00;161865.31;5070034;28;20051;-66
2023/12/18 05:39:46;;;;;;;50.40;31.98;;;;;;;4.93;100.00;161855.91;5068443;28;20068;-62
2023/12/18 05:42:14;;;;;;;57.17;31.90;;;;;;;4.91;100.00;161850.50;5070328;28;20044;-62
2023/12/18 05:44:40;;;;;;;50.55;32.63;;;;;;;4.89;100.00;161845.09;5068713;28;20044;-62
2023/12/18 05:47:05;;;;;;;57.63;34.33;;;;;;;4.89;100.00;161846.47;5069435;28;20023;-62
2023/12/18 05:49:31;;;;;;;67.95;37.00;;;;;;;4.91;100.00;161851.81;5068795;28;20037;-62
2023/12/18 05:51:56;;;;;;;53.40;32.90;;;;;;;4.91;100.00;161851.81;5070454;28;20020;-61
2023/12/18 05:54:21;;;;;;;55.42;34.65;;;;;;;4.88;100.00;161843.78;5068316;28;20384;-62
2023/12/18 05:56:47;;;;;;;67.53;35.72;;;;;;;4.87;100.00;161839.78;5070082;28;20032;-62
2023/12/18 05:59:12;;;;;;;56.10;32.83;;;;;;;4.87;100.00;161839.78;5068821;28;20403;-62
2023/12/18 06:01:37;;;;;;;50.88;30.45;;;;;;;4.86;100.00;161837.06;5069666;28;20028;-62
2023/12/18 06:04:03;;;;;;;56.67;34.70;;;;;;;4.85;100.00;161834.38;5068939;28;20028;-61
2023/12/18 06:06:28;;;;;;;63.85;41.17;;;;;;;4.90;100.00;161847.81;5069863;28;20021;-62
2023/12/18 06:08:53;;;;;;;49.95;36.88;;;;;;;4.91;100.00;161850.50;5068522;28;20017;-60
2023/12/18 06:11:19;;;;;;;49.92;34.78;;;;;;;4.92;100.00;161853.19;5070225;28;20028;-61
2023/12/18 06:13:44;;;;;;;68.65;35.55;;;;;;;4.91;100.00;161850.50;5066388;28;20491;-62
2023/12/18 06:16:10;;;;;;;77.82;35.63;;;;;;;4.92;100.00;161853.19;5048083;28;20037;-62
2023/12/18 06:18:35;;;;;;;56.17;33.28;;;;;;;4.88;100.00;161842.41;5049749;28;20044;-63
2023/12/18 06:21:05;;;;;;;59.08;33.70;;;;;;;4.90;100.00;161849.19;5048467;28;20055;-61
2023/12/18 06:23:31;;;;;;;63.15;34.47;;;;;;;4.91;100.00;161850.50;5049344;28;20037;-58
2023/12/18 06:25:56;;;;;;;66.65;37.97;;;;;;;4.91;100.00;161851.81;5048650;28;20515;-59
2023/12/18 06:28:22;;;;;;;60.70;36.97;;;;;;;4.93;100.00;161855.91;5049616;28;20128;-60
2023/12/18 06:30:47;;;;;;;47.15;33.88;;;;;;;4.94;100.00;161858.59;5048254;28;20048;-59
2023/12/18 06:33:12;;;;;;;72.47;36.88;;;;;;;4.96;100.00;161863.94;5049853;28;20391;-59
2023/12/18 06:35:38;;;;;;;63.13;37.00;;;;;;;4.95;100.00;161861.28;5048304;28;20067;-59
2023/12/18 06:38:03;;;;;;;57.97;37.35;;;;;;;4.92;100.00;161854.53;5049555;28;20041;-58
2023/12/18 06:40:29;;;;;;;70.43;41.20;;;;;;;4.93;100.00;161855.91;5080325;28;20044;-59
2023/12/18 06:42:54;;;;;;;64.82;40.25;;;;;;;4.93;100.00;161855.91;5049861;28;20049;-59
2023/12/18 06:45:19;;;;;;;59.33;34.25;;;;;;;4.95;100.00;161861.28;5047841;28;20059;-58
2023/12/18 06:47:45;;;;;;;84.30;40.47;;;;;;;4.84;100.00;161833.00;5049788;28;20040;-58
2023/12/18 06:50:10;;;;;;;71.13;37.60;;;;;;;4.94;100.00;161858.59;5048385;28;20404;-59
2023/12/18 06:52:37;;;;;;;57.63;35.95;;;;;;;4.95;100.00;161861.28;5049542;28;20457;-59
2023/12/18 06:55:02;;;;;;;70.30;38.65;;;;;;;4.97;100.00;161866.63;5048188;28;20044;-59
2023/12/18 06:57:28;;;;;;;64.93;39.90;;;;;;;4.95;100.00;161861.28;5049855;28;20020;-59
2023/12/18 06:59:53;;;;;;;79.75;39.35;;;;;;;4.92;100.00;161853.19;5051869;28;20041;-59
2023/12/18 07:02:18;;;;;;;55.90;37.88;;;;;;;4.93;100.00;161855.91;5053258;28;20024;-59
2023/12/18 07:04:44;;;;;;;59.40;39.20;;;;;;;4.93;100.00;161855.91;5051869;28;20116;-58
2023/12/18 07:07:10;;;;;;;73.30;44.85;;;;;;;4.94;100.00;161858.59;5052925;28;20033;-59
2023/12/18 07:09:35;;;;;;;71.75;39.42;;;;;;;4.94;100.00;161858.59;5051638;28;20039;-59
2023/12/18 07:12:00;;;;;;;64.53;41.25;;;;;;;4.95;100.00;161861.28;5053204;28;20024;-58
2023/12/18 07:14:26;;;;;;;61.15;39.72;;;;;;;4.98;100.00;161868.00;5036673;28;21236;-59
2023/12/18 07:16:53;;;;;;;69.28;40.00;;;;;;;5.00;100.00;161874.72;5051673;28;20021;-59
2023/12/18 07:19:18;;;;;;;64.93;39.10;;;;;;;5.00;100.00;161874.72;5051146;28;20105;-59
2023/12/18 07:21:43;;;;;;;63.97;39.05;;;;;;;4.92;100.00;161853.19;5052862;28;20021;-58
2023/12/18 07:24:09;;;;;;;62.50;38.00;;;;;;;4.99;100.00;161872.03;5051453;28;20408;-58
2023/12/18 07:26:34;;;;;;;70.25;41.45;;;;;;;4.96;100.00;161863.94;5052842;28;20037;-59
2023/12/18 07:29:00;;;;;;;68.10;42.13;;;;;;;5.00;100.00;161873.34;5051230;28;20125;-59
2023/12/18 07:31:25;;;;;;;77.55;44.30;;;;;;;5.04;100.00;161817.03;5052414;28;20028;-59
2023/12/18 07:33:51;;;;;;;68.97;40.67;;;;;;;5.03;100.00;161882.75;5051270;28;20051;-59
2023/12/18 07:36:16;;;;;;;66.20;40.67;;;;;;;5.07;100.00;161893.53;5050525;28;20048;-58
2023/12/18 07:38:42;;;;;;;77.18;40.30;;;;;;;5.09;100.00;161897.56;5052145;28;20029;-59
2023/12/18 07:41:07;;;;;;;57.30;38.30;;;;;;;5.10;100.00;161898.94;5051083;28;20041;-58
2023/12/18 07:43:33;;;;;;;64.07;41.03;;;;;;;5.12;100.00;161905.66;5052110;28;20024;-58
2023/12/18 07:45:58;;;;;;;64.60;39.90;;;;;;;5.09;100.00;161897.56;5050524;28;20045;-58
2023/12/18 07:48:24;;;;;;;65.13;38.25;;;;;;;5.11;100.00;161901.59;5052425;28;20021;-58
2023/12/18 07:50:50;;;;;;;67.00;40.92;;;;;;;5.06;100.00;161890.84;5050900;28;20139;-58
2023/12/18 07:53:16;;;;;;;63.90;40.90;;;;;;;5.12;100.00;161904.28;5052110;28;20230;-58
2023/12/18 07:55:42;;;;;;;65.28;40.53;;;;;;;5.12;100.00;161904.28;5050385;28;20040;-58
2023/12/18 07:58:07;;;;;;;68.68;40.92;;;;;;;5.16;100.00;161915.06;5051835;28;20028;-58
2023/12/18 08:00:33;;;;;;;69.90;38.42;;;;;;;5.18;100.00;161920.41;5050375;28;20052;-58
2023/12/18 08:03:01;;;;;;;62.67;39.70;;;;;;;5.18;100.00;161920.41;5052490;28;20025;-58
2023/12/18 08:05:27;;;;;;;71.13;42.97;;;;;;;5.19;100.00;161923.13;5050705;28;20338;-59
2023/12/18 08:07:53;;;;;;;70.47;42.92;;;;;;;5.22;100.00;161931.19;5050656;28;20021;-58
2023/12/18 08:10:18;;;;;;;64.32;38.42;;;;;;;5.20;100.00;161925.81;5048960;28;20037;-58
2023/12/18 08:12:44;;;;;;;59.90;41.58;;;;;;;5.22;100.00;161932.53;5051306;28;20024;-58
2023/12/18 08:15:09;;;;;;;65.53;38.55;;;;;;;5.25;100.00;161939.25;5049504;28;20040;-58
2023/12/18 08:17:38;;;;;;;62.10;40.50;;;;;;;5.21;100.00;161928.50;5051343;28;20052;-59
2023/12/18 08:20:06;;;;;;;61.88;37.50;;;;;;;5.23;100.00;161933.91;5049942;28;20067;-59
2023/12/18 08:22:32;;;;;;;75.10;42.20;;;;;;;5.23;100.00;161933.91;5051164;28;20187;-58
2023/12/18 08:24:57;;;;;;;60.78;37.13;;;;;;;5.24;100.00;161937.91;5050296;28;20048;-59
2023/12/18 08:27:22;;;;;;;61.42;37.92;;;;;;;5.23;100.00;161933.91;5051651;28;20463;-58
2023/12/18 08:29:48;;;;;;;66.88;42.17;;;;;;;5.25;100.00;161939.25;5050021;28;20041;-58
2023/12/18 08:32:13;;;;;;;67.05;38.63;;;;;;;5.20;100.00;161925.81;5051648;28;20244;-58
2023/12/18 08:34:38;;;;;;;68.65;39.00;;;;;;;5.27;100.00;161944.66;5050086;28;20334;-58
2023/12/18 08:37:05;;;;;;;74.57;41.28;;;;;;;5.28;100.00;161946.00;5051270;28;20045;-58
2023/12/18 08:39:31;;;;;;;70.38;37.90;;;;;;;5.25;100.00;161939.25;5049771;28;20511;-58
2023/12/18 08:41:57;;;;;;;67.25;37.22;;;;;;;5.24;100.00;161936.59;5051733;28;20025;-58
2023/12/18 08:44:22;;;;;;;62.70;39.78;;;;;;;5.26;100.00;161941.94;5049364;28;20033;-58
2023/12/18 08:46:47;;;;;;;64.75;36.42;;;;;;;5.24;100.00;161937.91;5051429;28;20018;-58
2023/12/18 08:49:13;;;;;;;62.22;36.85;;;;;;;5.21;100.00;161929.81;5050228;28;20029;-58
2023/12/18 08:51:38;;;;;;;67.50;38.75;;;;;;;5.25;100.00;161939.25;5050763;28;20037;-58
2023/12/18 08:54:04;;;;;;;71.10;40.35;;;;;;;5.26;100.00;161941.94;5049842;28;20017;-58
2023/12/18 08:56:33;;;;;;;82.35;40.13;;;;;;;5.30;100.00;161951.34;5051245;28;20373;-59
2023/12/18 08:58:59;;;;;;;51.67;36.25;;;;;;;5.29;100.00;161950.03;5049735;28;20432;-59
2023/12/18 09:01:24;;;;;;;65.43;36.33;;;;;;;5.33;100.00;161959.44;5050742;28;20017;-59
2023/12/18 09:03:50;;;;;;;64.72;38.28;;;;;;;5.35;100.00;161964.84;5049907;28;20028;-59
2023/12/18 09:06:16;;;;;;;61.38;37.65;;;;;;;5.34;100.00;161963.47;5048062;28;20393;-59
2023/12/18 09:08:41;;;;;;;59.70;37.28;;;;;;;5.35;100.00;161964.84;5050019;28;20021;-58
2023/12/18 09:11:07;;;;;;;64.57;39.17;;;;;;;5.39;100.00;161976.97;5048180;28;20060;-58
2023/12/18 09:13:34;;;;;;;59.33;35.40;;;;;;;5.44;100.00;161987.69;5050282;28;20162;-59
2023/12/18 09:16:02;;;;;;;56.05;34.20;;;;;;;5.46;100.00;161993.09;5049392;28;20033;-58
2023/12/18 09:18:27;;;;;;;60.67;36.97;;;;;;;5.49;100.00;162001.13;5050949;28;20075;-58
2023/12/18 09:20:52;;;;;;;61.47;37.25;;;;;;;5.50;100.00;162003.81;5048260;28;20033;-59
2023/12/18 09:23:18;;;;;;;59.22;38.50;;;;;;;5.50;100.00;162005.19;5050174;28;20024;-59
2023/12/18 09:25:43;;;;;;;62.83;34.10;;;;;;;5.54;100.00;162015.94;5049199;28;20044;-58
2023/12/18 09:28:08;;;;;;;76.70;39.05;;;;;;;5.56;100.00;162019.97;5050263;28;20028;-59
2023/12/18 09:30:34;;;;;;;52.28;33.15;;;;;;;5.60;100.00;162030.75;5048885;28;20119;-59
2023/12/18 09:32:59;;;;;;;49.95;33.85;;;;;;;5.66;100.00;162046.91;5050722;28;20032;-58
2023/12/18 09:35:25;;;;;;;57.67;35.17;;;;;;;5.54;100.00;162014.63;5032664;28;20030;-58
2023/12/18 09:37:50;;;;;;;64.90;34.08;;;;;;;5.70;100.00;162057.63;5030479;28;20045;-58
2023/12/18 09:40:16;;;;;;;67.45;39.72;;;;;;;5.71;100.00;162060.34;5029405;28;20040;-58
2023/12/18 09:42:41;;;;;;;52.67;32.65;;;;;;;5.74;100.00;162065.72;5030214;28;20044;-58
2023/12/18 09:45:08;;;;;;;66.70;32.72;;;;;;;5.74;100.00;162065.72;5028052;28;20044;-59
2023/12/18 09:47:34;;;;;;;74.30;37.63;;;;;;;5.76;100.00;162072.44;5030271;28;20032;-59
2023/12/18 09:49:59;;;;;;;60.58;32.80;;;;;;;5.75;100.00;162069.75;5028761;28;20041;-58
2023/12/18 09:52:30;;;;;;;69.30;37.83;;;;;;;5.72;100.00;162063.03;5030335;28;20033;-58
2023/12/18 09:54:59;;;;;;;59.67;35.47;;;;;;;5.74;100.00;162065.72;5029106;28;20129;-58
2023/12/18 09:57:25;;;;;;;57.00;35.55;;;;;;;5.80;100.00;162081.88;5029650;28;20499;-58
2023/12/18 09:59:50;;;;;;;52.33;34.53;;;;;;;5.76;100.00;162071.13;5029154;28;20048;-58
2023/12/18 10:02:17;;;;;;;55.53;38.33;;;;;;;5.76;100.00;162071.13;5030421;28;20598;-58
2023/12/18 10:04:43;;;;;;;59.28;38.92;;;;;;;5.77;100.00;162073.81;5028664;28;20140;-58
2023/12/18 10:07:08;;;;;;;62.72;33.50;;;;;;;5.83;100.00;162089.97;5030326;28;20025;-58
2023/12/18 10:09:35;;;;;;;56.58;35.45;;;;;;;5.85;100.00;162095.31;5028440;28;20052;-58
2023/12/18 10:12:03;;;;;;;48.80;34.45;;;;;;;5.88;100.00;162103.41;5027993;28;20491;-58
2023/12/18 10:14:28;;;;;;;54.92;35.10;;;;;;;5.94;100.00;162119.53;5027885;28;20033;-58
2023/12/18 10:16:55;;;;;;;54.67;36.58;;;;;;;5.95;100.00;162122.25;5029633;28;20029;-58
2023/12/18 10:19:23;;;;;;;47.17;32.50;;;;;;;5.89;100.00;162106.09;5027421;28;20039;-58
2023/12/18 10:21:49;;;;;;;56.55;36.13;;;;;;;6.00;100.00;162135.72;5029760;28;20104;-58
2023/12/18 10:24:15;;;;;;;54.20;34.33;;;;;;;5.98;100.00;162128.97;5028106;28;20048;-58
2023/12/18 10:26:41;;;;;;;48.33;33.92;;;;;;;6.01;100.00;162138.44;5029644;28;20025;-58
2023/12/18 10:29:07;;;;;;;61.20;35.90;;;;;;;6.05;100.00;162146.53;5028379;28;20084;-58
2023/12/18 10:31:34;;;;;;;56.03;33.05;;;;;;;6.06;100.00;162149.22;5029910;28;20087;-58
2023/12/18 10:34:02;;;;;;;61.53;36.05;;;;;;;6.03;100.00;162143.84;5031617;28;20037;-58
2023/12/18 10:36:32;;;;;;;52.08;38.17;;;;;;;6.08;100.00;162154.56;5033700;28;20038;-58
2023/12/18 10:39:00;;;;;;;53.88;35.80;;;;;;;6.08;100.00;162155.94;5032748;28;20211;-58
2023/12/18 10:41:28;;;;;;;50.90;34.38;;;;;;;6.10;100.00;162159.97;5033434;28;20056;-59
2023/12/18 10:43:55;;;;;;;52.60;36.60;;;;;;;6.09;100.00;162157.28;5032382;28;20075;-58
2023/12/18 10:46:24;;;;;;;53.08;33.60;;;;;;;6.06;100.00;162150.56;5033524;28;20037;-58
2023/12/18 10:48:51;;;;;;;60.33;33.40;;;;;;;6.08;100.00;162154.56;5032153;28;20028;-57
2023/12/18 10:51:20;;;;;;;48.75;34.42;;;;;;;6.10;100.00;162159.97;5033470;28;20035;-59
2023/12/18 10:53:47;;;;;;;45.67;29.40;;;;;;;6.10;100.00;162161.34;5033868;28;20017;-58
2023/12/18 10:56:16;;;;;;;50.95;33.65;;;;;;;6.12;100.00;162165.38;5032099;28;20102;-58
2023/12/18 10:58:42;;;;;;;51.28;29.98;;;;;;;6.13;100.00;162168.06;5031161;28;20140;-58
2023/12/18 11:01:09;;;;;;;55.53;34.65;;;;;;;6.14;100.00;162170.75;5051022;28;20044;-59
2023/12/18 11:03:36;;;;;;;48.70;32.92;;;;;;;6.11;100.00;162162.66;5052811;28;20078;-58